WetterOnline ( http://www.wetteronline.de )

Wetter aktuell Pfälzer Wald (in 400m)

Aktuelles Wetter: Weinbiet/Pfalz (557m)

6-stündlich | Neueste Meldungen
Ortszeit Temperatur Wetter
Mo, 16.07. 14:00 26.3° C leicht bewölkt
Mo, 16.07. 8:00 17.2° C bewölkt
Mo, 16.07. 2:00 16.2° C wolkig
So, 15.07. 20:00 19.6° C bedeckt
So, 15.07. 14:00 26.2° C wolkenlos
So, 15.07. 8:00 18.5° C wolkig
So, 15.07. 2:00 19.1° C bewölkt
Sa, 14.07. 20:00 25.0° C bewölkt
Ortszeit Temperatur Wetter
Mo, 16.07. 16:00 26.6° C leicht bewölkt
Mo, 16.07. 15:50 26.6° C leicht bewölkt
Mo, 16.07. 15:40 27.2° C leicht bewölkt
Mo, 16.07. 15:30 26.4° C leicht bewölkt
Mo, 16.07. 15:20 26.4° C leicht bewölkt
Mo, 16.07. 15:10 27.5° C leicht bewölkt
Mo, 16.07. 15:00 27.1° C wolkenlos
Mo, 16.07. 14:30 25.4° C wolkenlos
Mo, 16.07. 14:00 26.3° C leicht bewölkt
Mo, 16.07. 13:30 23.8° C fast wolkenlos
Mo, 16.07. 13:00 24.1° C wolkenlos
Ortszeit Relative Feuchte Sichtweite
Mo, 16.07. 14:00 38% 10 km
Mo, 16.07. 8:00 65% 11 km
Mo, 16.07. 2:00 79% 10 km
So, 15.07. 20:00 55% 10 km
So, 15.07. 14:00 42% 10 km
So, 15.07. 8:00 65% 10 km
So, 15.07. 2:00 62% 9 km
Sa, 14.07. 20:00 39% 10 km
Ortszeit Relative Feuchte Sichtweite
Mo, 16.07. 16:00 34% 10 km
Mo, 16.07. 15:50 34% -
Mo, 16.07. 15:40 35% -
Mo, 16.07. 15:30 36% 10 km
Mo, 16.07. 15:20 36% -
Mo, 16.07. 15:10 35% -
Mo, 16.07. 15:00 34% 9 km
Mo, 16.07. 14:30 36% 10 km
Mo, 16.07. 14:00 38% 10 km
Mo, 16.07. 13:30 43% 10 km
Mo, 16.07. 13:00 42% 10 km
Ortszeit Niederschlagsmenge Niederschlagsart
Mo, 16.07. 14:00 0.0 l/m2 in 6 Std. -
Mo, 16.07. 8:00 0.1 l/m2 in 12 Std. Regen
Mo, 16.07. 2:00 0.1 l/m2 in 6 Std. Regen
So, 15.07. 20:00 0.1 l/m2 in 12 Std. Regen
So, 15.07. 14:00 0.0 l/m2 in 6 Std. -
So, 15.07. 8:00 0.0 l/m2 in 12 Std. -
So, 15.07. 2:00 0.0 l/m2 in 6 Std. -
Sa, 14.07. 20:00 0.0 l/m2 in 12 Std. -
Ortszeit Niederschlagsmenge Niederschlagsart
Mo, 16.07. 16:00 0.0 l/m2 in 1 Std. -
Mo, 16.07. 15:50 keine Meldung -
Mo, 16.07. 15:40 keine Meldung -
Mo, 16.07. 15:30 0.0 l/m2 in 1 Std. -
Mo, 16.07. 15:20 keine Meldung -
Mo, 16.07. 15:10 keine Meldung -
Mo, 16.07. 15:00 0.0 l/m2 in 1 Std. -
Mo, 16.07. 14:30 0.0 l/m2 in 1 Std. -
Mo, 16.07. 14:00 0.0 l/m2 in 1 Std. -
Mo, 16.07. 13:30 0.0 l/m2 in 1 Std. -
Mo, 16.07. 13:00 0.0 l/m2 in 1 Std. -
Ortszeit Stärke Spitze Richtung
km/h Bft. km/h Grad Sektor
Mo, 16.07. 14:00 13 3 30 140° SO
Mo, 16.07. 8:00 14 3 25 180° S
Mo, 16.07. 2:00 4 1 36 360° N
So, 15.07. 20:00 11 2 58 70° O
So, 15.07. 14:00 15 3 28 40° NO
So, 15.07. 8:00 9 2 28 40° NO
So, 15.07. 2:00 18 3 40 10° N
Sa, 14.07. 20:00 6 1 24 50° NO
Ortszeit Stärke Spitze Richtung
km/h Bft. km/h Grad Sektor
Mo, 16.07. 16:00 7 2 22 90° O
Mo, 16.07. 15:50 7 2 - 90° O
Mo, 16.07. 15:40 11 2 - 130° SO
Mo, 16.07. 15:30 14 3 22 120° SO
Mo, 16.07. 15:20 14 3 - 120° SO
Mo, 16.07. 15:10 11 2 - 140° SO
Mo, 16.07. 15:00 11 2 22 120° SO
Mo, 16.07. 14:30 11 2 18 140° SO
Mo, 16.07. 14:00 13 3 30 140° SO
Mo, 16.07. 13:30 14 3 25 130° SO
Mo, 16.07. 13:00 14 3 25 120° SO
Ortszeit Untergrenze Bedeckung Gattung
total tief tief mittel hoch
Mo, 16.07. 14:00 1260 m 2/8 2/8 - - -
Mo, 16.07. 8:00 2700 m 7/8 6/8 - - -
Mo, 16.07. 2:00 1800 m 8/8 1/8 - - -
So, 15.07. 20:00 3600 m 8/8 8/8 - - -
So, 15.07. 14:00 - 0/8 0/8 - - -
So, 15.07. 8:00 6900 m 5/8 5/8 - - -
So, 15.07. 2:00 3300 m 7/8 7/8 - - -
Sa, 14.07. 20:00 3600 m 7/8 7/8 - - -
Ortszeit Bedeckungsgrad in Achtel und Wolkenuntergrenze
Mo, 16.07. 16:00 3(9000m)
Mo, 16.07. 15:50 3(9000m)
Mo, 16.07. 15:40 5(9000m)
Mo, 16.07. 15:30 6(8700m)
Mo, 16.07. 15:20 6(8700m)
Mo, 16.07. 15:10 4(9000m)
Mo, 16.07. 15:00 keine Wolken
Mo, 16.07. 14:30 keine Wolken
Mo, 16.07. 14:00 2(1260m)
Mo, 16.07. 13:30 2(1230m)
Mo, 16.07. 13:00 keine Wolken
Ortszeit Luftdruck NN (hPa) Tendenz (hPa in 3 Std.)
Mo, 16.07. 14:00 1012 - 0,6
Mo, 16.07. 8:00 1014 - 0,3
Mo, 16.07. 2:00 1015 + 0,3
So, 15.07. 20:00 1015 + 0,7
So, 15.07. 14:00 1014 - 1,3
So, 15.07. 8:00 1016 0,0
So, 15.07. 2:00 1017 0,0
Sa, 14.07. 20:00 1015 - 0,9
Ortszeit Luftdruck NN (hPa) Tendenz (hPa in 3 Std.)
Mo, 16.07. 16:00 1011 - 1,3
Mo, 16.07. 15:50 1011 keine Meldung
Mo, 16.07. 15:40 1011 keine Meldung
Mo, 16.07. 15:30 1011 - 1,2
Mo, 16.07. 15:20 1011 keine Meldung
Mo, 16.07. 15:10 1011 keine Meldung
Mo, 16.07. 15:00 1011 - 1,2
Mo, 16.07. 14:30 1012 - 1,0
Mo, 16.07. 14:00 1012 - 0,6
Mo, 16.07. 13:30 1013 - 0,3
Mo, 16.07. 13:00 1013 - 0,2
Ortszeit Schneehöhe (cm)
Mo, 16.07. 14:00 -
Mo, 16.07. 8:00 -
Mo, 16.07. 2:00 -
So, 15.07. 20:00 -
So, 15.07. 14:00 -
So, 15.07. 8:00 -
So, 15.07. 2:00 -
Sa, 14.07. 20:00 -
Ortszeit Schneehöhe (cm)
Mo, 16.07. 16:00 -
Mo, 16.07. 15:50 -
Mo, 16.07. 15:40 -
Mo, 16.07. 15:30 -
Mo, 16.07. 15:20 -
Mo, 16.07. 15:10 -
Mo, 16.07. 15:00 -
Mo, 16.07. 14:30 -
Mo, 16.07. 14:00 -
Mo, 16.07. 13:30 -
Mo, 16.07. 13:00 -
Link zu dieser Seite / Seite empfehlen

Das Wetter in ...